Time;durP1;ratioP1;P1;durP2;ratioP2;P2;SDS_P1;SDS_P2;PMS_P1;PMS_P2;Temp;Humidity;BMP_temperature;BMP_pressure;BME280_temperature;BME280_humidity;BME280_pressure;Samples;Min_cycle;Max_cycle;Signal;HPM_P1;HPM_P2
2022/07/13 00:00:25;;;;;;;3.20;0.82;;;17.40;99.90;;;;;;5092028;28;20211;-60
2022/07/13 00:02:52;;;;;;;1.80;0.90;;;17.30;99.90;;;;;;5091997;28;20216;-59
2022/07/13 00:05:18;;;;;;;0.93;0.88;;;17.20;99.90;;;;;;5094965;28;20237;-59
2022/07/13 00:07:45;;;;;;;1.02;1.00;;;17.00;99.90;;;;;;5095774;28;20695;-58
2022/07/13 00:10:12;;;;;;;1.03;0.87;;;17.00;99.90;;;;;;5096150;28;20232;-59
2022/07/13 00:12:40;;;;;;;1.90;0.80;;;17.00;99.90;;;;;;5096014;28;20735;-59
2022/07/13 00:15:08;;;;;;;1.70;0.90;;;17.00;99.90;;;;;;5096001;28;20280;-59
2022/07/13 00:17:34;;;;;;;0.80;0.80;;;17.00;99.90;;;;;;5095814;28;20204;-59
2022/07/13 00:20:01;;;;;;;1.08;0.85;;;17.00;99.90;;;;;;5095956;28;20204;-58
2022/07/13 00:22:28;;;;;;;1.55;0.90;;;17.00;99.90;;;;;;5096064;28;20200;-60
2022/07/13 00:24:55;;;;;;;0.90;0.85;;;16.90;99.90;;;;;;5095934;28;20228;-59
2022/07/13 00:27:21;;;;;;;1.58;1.00;;;17.00;99.90;;;;;;5095511;28;20573;-59
2022/07/13 00:29:49;;;;;;;1.73;1.00;;;17.00;99.90;;;;;;5095671;28;20227;-58
2022/07/13 00:32:16;;;;;;;3.05;1.17;;;16.90;99.90;;;;;;5096143;28;20603;-59
2022/07/13 00:34:43;;;;;;;3.28;1.05;;;16.90;99.90;;;;;;5095760;28;20315;-60
2022/07/13 00:37:09;;;;;;;1.83;0.80;;;16.80;99.90;;;;;;5095420;28;20200;-59
2022/07/13 00:39:36;;;;;;;1.92;0.90;;;16.90;99.90;;;;;;5096043;28;20197;-58
2022/07/13 00:42:03;;;;;;;1.30;1.13;;;16.90;99.90;;;;;;5095673;28;20257;-59
2022/07/13 00:44:29;;;;;;;0.82;0.77;;;16.80;99.90;;;;;;5095352;28;20357;-59
2022/07/13 00:46:57;;;;;;;2.45;1.00;;;16.80;99.90;;;;;;5095246;28;20207;-58
2022/07/13 00:49:25;;;;;;;0.82;0.73;;;16.80;99.90;;;;;;5095212;28;20293;-58
2022/07/13 00:51:51;;;;;;;0.80;0.80;;;16.70;99.90;;;;;;5095225;28;20699;-59
2022/07/13 00:54:20;;;;;;;1.00;0.85;;;16.70;99.90;;;;;;5095336;28;20274;-59
2022/07/13 00:56:48;;;;;;;1.05;0.90;;;16.70;99.90;;;;;;5095192;28;20208;-59
2022/07/13 00:59:15;;;;;;;1.35;0.90;;;16.70;99.90;;;;;;5095243;28;20374;-59
2022/07/13 01:01:41;;;;;;;0.95;0.70;;;16.70;99.90;;;;;;5095115;28;20302;-59
2022/07/13 01:04:09;;;;;;;1.30;1.17;;;16.60;99.90;;;;;;5094955;28;20232;-59
2022/07/13 01:06:36;;;;;;;0.95;0.93;;;16.70;99.90;;;;;;5095048;28;20212;-60
2022/07/13 01:09:03;;;;;;;2.85;1.00;;;16.70;99.90;;;;;;5094860;28;20231;-59
2022/07/13 01:11:32;;;;;;;2.45;1.02;;;16.70;99.90;;;;;;5095005;28;20580;-58
2022/07/13 01:13:58;;;;;;;1.25;0.98;;;16.70;99.90;;;;;;5094904;28;20664;-59
2022/07/13 01:16:25;;;;;;;1.35;1.15;;;16.70;99.90;;;;;;5094690;28;20204;-60
2022/07/13 01:18:52;;;;;;;1.08;1.00;;;16.70;99.90;;;;;;5094101;28;20200;-59
2022/07/13 01:21:21;;;;;;;2.38;1.00;;;16.70;99.90;;;;;;5094487;28;20696;-58
2022/07/13 01:23:49;;;;;;;0.70;0.70;;;16.70;99.90;;;;;;5094535;28;20232;-60
2022/07/13 01:26:16;;;;;;;1.33;1.10;;;16.70;99.90;;;;;;5094735;28;20200;-59
2022/07/13 01:28:43;;;;;;;1.23;1.02;;;16.80;99.90;;;;;;5094423;28;20216;-62
2022/07/13 01:31:09;;;;;;;1.10;0.80;;;16.80;99.90;;;;;;5094662;28;20204;-59
2022/07/13 01:33:36;;;;;;;2.53;0.82;;;16.80;99.90;;;;;;5094469;28;20232;-59
2022/07/13 01:36:03;;;;;;;1.33;1.10;;;16.70;99.90;;;;;;5094525;28;20717;-58
2022/07/13 01:38:30;;;;;;;1.17;0.90;;;16.70;99.90;;;;;;5094278;28;20641;-58
2022/07/13 01:40:58;;;;;;;2.33;1.00;;;16.70;99.90;;;;;;5094533;28;20204;-57
2022/07/13 01:43:28;;;;;;;1.10;1.00;;;16.70;99.90;;;;;;5094275;28;20240;-58
2022/07/13 01:45:55;;;;;;;3.03;0.77;;;16.70;99.90;;;;;;5094233;28;20204;-58
2022/07/13 01:48:22;;;;;;;1.05;0.98;;;16.80;99.90;;;;;;5094401;28;20204;-60
2022/07/13 01:50:48;;;;;;;1.02;0.85;;;16.80;99.90;;;;;;5094266;28;20220;-60
2022/07/13 01:53:15;;;;;;;3.35;1.10;;;16.70;99.90;;;;;;5094063;28;20593;-59
2022/07/13 01:55:42;;;;;;;1.00;1.00;;;16.70;99.90;;;;;;5094243;28;20204;-60
2022/07/13 01:58:10;;;;;;;3.35;0.88;;;16.70;99.90;;;;;;5093790;28;20234;-59
2022/07/13 02:00:37;;;;;;;1.40;1.10;;;16.70;99.90;;;;;;5093916;28;20562;-59
2022/07/13 02:03:04;;;;;;;1.90;1.13;;;16.60;99.90;;;;;;5094148;28;20220;-57
2022/07/13 02:05:31;;;;;;;1.27;0.97;;;16.70;99.90;;;;;;5094067;28;20253;-58
2022/07/13 02:07:58;;;;;;;3.73;1.23;;;16.60;99.90;;;;;;5093738;28;20270;-57
2022/07/13 02:10:34;;;;;;;1.35;0.90;;;16.70;99.90;;;;;;5093944;28;20239;-59
2022/07/13 02:13:01;;;;;;;3.50;1.10;;;16.70;99.90;;;;;;5093668;28;20573;-58
2022/07/13 02:15:29;;;;;;;1.63;0.98;;;16.70;99.90;;;;;;5093929;28;20211;-58
2022/07/13 02:17:56;;;;;;;1.23;1.00;;;16.70;99.90;;;;;;5093779;28;20281;-57
2022/07/13 02:20:23;;;;;;;1.95;0.75;;;16.70;99.90;;;;;;5093665;28;20269;-59
2022/07/13 02:22:49;;;;;;;1.02;0.90;;;16.70;99.90;;;;;;5093871;28;20204;-58
2022/07/13 02:25:16;;;;;;;1.95;0.95;;;16.70;99.90;;;;;;5093770;28;20204;-58
2022/07/13 02:27:44;;;;;;;1.27;0.93;;;16.70;99.90;;;;;;5093058;28;20200;-59
2022/07/13 02:30:13;;;;;;;1.23;0.80;;;16.70;99.90;;;;;;5094620;28;20762;-59
2022/07/13 02:32:42;;;;;;;1.30;1.20;;;16.70;99.90;;;;;;5095004;28;20229;-59
2022/07/13 02:35:10;;;;;;;1.20;0.90;;;16.70;99.90;;;;;;5096358;28;20204;-60
2022/07/13 02:37:36;;;;;;;1.85;0.90;;;16.70;99.90;;;;;;5094998;28;20212;-58
2022/07/13 02:40:04;;;;;;;2.85;1.20;;;16.70;99.90;;;;;;5094277;28;20258;-60
2022/07/13 02:42:30;;;;;;;2.05;1.10;;;16.70;99.90;;;;;;5093847;28;20212;-59
2022/07/13 02:44:57;;;;;;;2.00;0.90;;;16.60;99.90;;;;;;5093222;28;20255;-60
2022/07/13 02:47:24;;;;;;;0.90;0.90;;;16.50;99.90;;;;;;5094298;28;20570;-58
2022/07/13 02:49:52;;;;;;;1.13;0.90;;;16.60;99.90;;;;;;5093417;28;20220;-58
2022/07/13 02:52:19;;;;;;;1.63;0.82;;;16.70;99.90;;;;;;5093264;28;20238;-61
2022/07/13 02:54:46;;;;;;;1.38;0.88;;;16.70;99.90;;;;;;5092958;28;20247;-59
2022/07/13 02:57:12;;;;;;;1.93;1.10;;;16.80;99.90;;;;;;5092860;28;20684;-58
2022/07/13 02:59:39;;;;;;;1.63;1.08;;;16.80;99.90;;;;;;5093382;28;20204;-57
2022/07/13 03:02:07;;;;;;;1.70;1.03;;;16.80;99.90;;;;;;5093205;28;20204;-59
2022/07/13 03:04:34;;;;;;;1.98;1.15;;;16.70;99.90;;;;;;5092844;28;20228;-59
2022/07/13 03:07:03;;;;;;;1.00;0.90;;;16.90;99.90;;;;;;5092678;28;20208;-59
2022/07/13 03:09:30;;;;;;;3.00;1.48;;;16.90;99.90;;;;;;5092613;28;20250;-58
2022/07/13 03:11:56;;;;;;;1.15;0.90;;;16.90;99.90;;;;;;5092901;28;20204;-58
2022/07/13 03:14:23;;;;;;;1.15;1.05;;;16.80;99.90;;;;;;5092525;28;20715;-57
2022/07/13 03:16:50;;;;;;;2.60;1.25;;;16.70;99.90;;;;;;5092750;28;20212;-58
2022/07/13 03:19:16;;;;;;;1.58;1.02;;;16.70;99.90;;;;;;5092500;28;20295;-59
2022/07/13 03:21:43;;;;;;;5.22;4.28;;;16.80;99.90;;;;;;5092462;28;20204;-58
2022/07/13 03:24:11;;;;;;;2.03;1.40;;;16.90;99.90;;;;;;5092375;28;20281;-58
2022/07/13 03:26:38;;;;;;;2.77;1.37;;;17.00;99.90;;;;;;5092435;28;20663;-58
2022/07/13 03:29:04;;;;;;;1.90;0.95;;;17.00;99.90;;;;;;5092261;28;20234;-59
2022/07/13 03:31:31;;;;;;;1.20;1.00;;;17.10;99.90;;;;;;5092441;28;20205;-57
2022/07/13 03:33:58;;;;;;;1.35;1.10;;;17.10;99.90;;;;;;5092734;28;20224;-58
2022/07/13 03:36:24;;;;;;;3.85;1.05;;;17.00;99.90;;;;;;5092855;28;20281;-58
2022/07/13 03:38:52;;;;;;;4.60;1.70;;;17.00;99.90;;;;;;5092091;28;20211;-59
2022/07/13 03:41:20;;;;;;;5.43;2.70;;;17.10;99.90;;;;;;5092339;28;20209;-58
2022/07/13 03:43:46;;;;;;;2.95;1.30;;;17.10;99.90;;;;;;5099187;22;20404;-61
2022/07/13 03:46:13;;;;;;;1.77;0.90;;;17.00;99.90;;;;;;5052773;28;20208;-59
2022/07/13 03:48:40;;;;;;;1.75;1.40;;;17.00;99.90;;;;;;5051897;28;20201;-59
2022/07/13 03:51:06;;;;;;;1.88;1.10;;;16.90;99.90;;;;;;5052603;28;20226;-59
2022/07/13 03:53:34;;;;;;;2.05;1.00;;;16.90;99.90;;;;;;5052758;28;20648;-59
2022/07/13 03:56:01;;;;;;;1.23;1.13;;;16.90;99.90;;;;;;5052411;28;20263;-59
2022/07/13 03:58:29;;;;;;;1.33;1.20;;;16.90;99.90;;;;;;5052399;28;20260;-59
2022/07/13 04:00:56;;;;;;;4.50;1.30;;;16.90;99.90;;;;;;5052854;28;20268;-59
2022/07/13 04:03:22;;;;;;;2.67;1.40;;;16.80;99.90;;;;;;5052684;28;20202;-59
2022/07/13 04:05:49;;;;;;;3.92;1.38;;;16.80;99.90;;;;;;5052468;28;20210;-59
2022/07/13 04:08:17;;;;;;;2.92;1.40;;;16.80;99.90;;;;;;5052330;28;20206;-59
2022/07/13 04:10:44;;;;;;;5.72;1.30;;;16.90;99.90;;;;;;5052611;28;20283;-60
2022/07/13 04:13:11;;;;;;;2.17;1.30;;;16.90;99.90;;;;;;5052547;28;20665;-59
2022/07/13 04:15:39;;;;;;;1.52;1.00;;;16.90;99.90;;;;;;5052289;28;20477;-60
2022/07/13 04:18:05;;;;;;;3.10;1.30;;;16.90;99.90;;;;;;5051972;28;20216;-59
2022/07/13 04:20:32;;;;;;;1.47;1.27;;;16.90;99.90;;;;;;5051950;28;20657;-59
2022/07/13 04:22:59;;;;;;;1.30;1.17;;;17.00;99.90;;;;;;5052407;28;20205;-59
2022/07/13 04:25:26;;;;;;;4.18;1.80;;;17.00;99.90;;;;;;5052537;28;20232;-59
2022/07/13 04:27:53;;;;;;;3.30;1.50;;;17.00;99.90;;;;;;5052617;28;20210;-59
2022/07/13 04:30:20;;;;;;;2.05;1.40;;;16.90;99.90;;;;;;5052279;28;20696;-59
2022/07/13 04:32:48;;;;;;;3.97;1.35;;;16.90;99.90;;;;;;5052186;28;20241;-59
2022/07/13 04:35:14;;;;;;;3.05;1.35;;;16.90;99.90;;;;;;5052148;28;20633;-59
2022/07/13 04:37:41;;;;;;;4.88;1.13;;;16.90;99.90;;;;;;5051795;28;20202;-58
2022/07/13 04:40:09;;;;;;;1.90;1.35;;;16.90;99.90;;;;;;5052301;28;20197;-58
2022/07/13 04:42:35;;;;;;;2.35;1.10;;;17.00;99.90;;;;;;5052136;28;20202;-58
2022/07/13 04:45:02;;;;;;;4.70;1.10;;;17.00;99.90;;;;;;5051794;28;20234;-58
2022/07/13 04:47:29;;;;;;;1.85;1.17;;;17.20;99.90;;;;;;5052770;28;20202;-58
2022/07/13 04:49:57;;;;;;;3.10;1.25;;;17.30;99.90;;;;;;5055153;28;20213;-58
2022/07/13 04:52:24;;;;;;;3.25;1.52;;;17.30;99.90;;;;;;5056874;28;20613;-58
2022/07/13 04:54:51;;;;;;;2.42;1.50;;;17.50;99.90;;;;;;5055545;28;20221;-59
2022/07/13 04:57:18;;;;;;;3.88;1.70;;;17.60;99.90;;;;;;5054950;28;20217;-59
2022/07/13 04:59:44;;;;;;;1.70;1.30;;;17.80;99.90;;;;;;5054989;28;20206;-59
2022/07/13 05:02:11;;;;;;;2.60;1.50;;;18.00;99.90;;;;;;5055382;28;20206;-59
2022/07/13 05:04:38;;;;;;;8.63;2.13;;;18.20;99.90;;;;;;5055052;28;20230;-59
2022/07/13 05:07:06;;;;;;;1.40;1.30;;;18.30;99.90;;;;;;5055277;28;20205;-59
2022/07/13 05:09:32;;;;;;;2.42;1.40;;;18.60;99.90;;;;;;5054940;28;20240;-59
2022/07/13 05:11:59;;;;;;;1.70;1.50;;;18.80;99.90;;;;;;5054931;28;20557;-58
2022/07/13 05:14:26;;;;;;;2.17;1.40;;;18.90;99.90;;;;;;5055232;28;20225;-59
2022/07/13 05:16:52;;;;;;;3.72;1.40;;;19.20;99.90;;;;;;5055244;28;20205;-59
2022/07/13 05:19:19;;;;;;;2.60;1.40;;;19.50;99.90;;;;;;5054890;28;20201;-59
2022/07/13 05:21:46;;;;;;;2.97;1.38;;;20.30;99.90;;;;;;5054683;28;20201;-59
2022/07/13 05:24:14;;;;;;;3.38;1.48;;;22.30;99.90;;;;;;5054426;28;20657;-59
2022/07/13 05:26:40;;;;;;;2.28;1.45;;;24.60;99.90;;;;;;5054365;28;20206;-59
2022/07/13 05:29:07;;;;;;;2.33;1.27;;;26.60;99.90;;;;;;5054713;28;20244;-59
2022/07/13 05:31:34;;;;;;;1.58;1.02;;;28.30;95.00;;;;;;5054753;28;20320;-59
2022/07/13 05:34:00;;;;;;;1.30;1.00;;;29.50;90.60;;;;;;5054819;28;20276;-59
2022/07/13 05:36:27;;;;;;;1.23;1.00;;;29.70;85.50;;;;;;5054808;28;20239;-59
2022/07/13 05:38:54;;;;;;;3.03;0.98;;;28.90;85.60;;;;;;5054387;28;20233;-59
2022/07/13 05:41:22;;;;;;;2.38;0.90;;;28.70;86.40;;;;;;5054400;28;20726;-60
2022/07/13 05:43:49;;;;;;;1.75;0.90;;;29.60;83.00;;;;;;5054481;28;20252;-60
2022/07/13 05:46:17;;;;;;;1.98;1.25;;;31.10;78.10;;;;;;5054644;28;20206;-62
2022/07/13 05:48:43;;;;;;;1.77;1.00;;;32.50;71.80;;;;;;5054535;28;20210;-60
2022/07/13 05:51:11;;;;;;;3.72;0.82;;;34.00;66.50;;;;;;5053980;28;20228;-60
2022/07/13 05:53:37;;;;;;;1.33;1.00;;;35.30;61.20;;;;;;5054196;28;20233;-60
2022/07/13 05:56:05;;;;;;;2.42;1.20;;;36.60;57.30;;;;;;5054433;28;20201;-60
2022/07/13 05:58:33;;;;;;;4.30;1.13;;;37.10;55.00;;;;;;5054883;28;20340;-60
2022/07/13 06:01:00;;;;;;;1.00;0.88;;;36.20;54.70;;;;;;5054513;28;20236;-60
2022/07/13 06:03:26;;;;;;;2.75;0.90;;;34.90;56.50;;;;;;5053811;28;20221;-59
2022/07/13 06:05:54;;;;;;;1.35;0.80;;;33.70;58.30;;;;;;5054604;28;20209;-60
2022/07/13 06:08:21;;;;;;;1.10;0.90;;;33.20;59.10;;;;;;5054405;28;20213;-60
2022/07/13 06:10:48;;;;;;;3.10;0.93;;;32.60;59.90;;;;;;5054730;28;20283;-59
2022/07/13 06:13:14;;;;;;;3.25;1.00;;;31.80;61.80;;;;;;5054596;28;20209;-59
2022/07/13 06:15:42;;;;;;;4.10;0.90;;;31.10;63.40;;;;;;5054163;28;20202;-59
2022/07/13 06:18:09;;;;;;;1.30;0.70;;;30.30;65.50;;;;;;5053577;28;20205;-62
2022/07/13 06:20:36;;;;;;;1.35;0.93;;;29.60;67.30;;;;;;5054286;28;20210;-59
2022/07/13 06:23:12;;;;;;;2.95;1.52;;;28.90;69.30;;;;;;5054735;28;20201;-62
2022/07/13 06:25:39;;;;;;;4.38;1.70;;;28.20;72.30;;;;;;5054902;28;20216;-62
2022/07/13 06:28:06;;;;;;;1.95;1.45;;;27.70;74.70;;;;;;5054398;28;20230;-60
2022/07/13 06:30:33;;;;;;;3.65;1.60;;;27.50;76.20;;;;;;5053932;28;20252;-59
2022/07/13 06:33:01;;;;;;;2.28;1.40;;;27.40;77.20;;;;;;5054289;28;20218;-59
2022/07/13 06:35:29;;;;;;;1.33;0.95;;;27.60;77.30;;;;;;5053668;28;20229;-59
2022/07/13 06:37:56;;;;;;;3.30;2.30;;;28.00;76.80;;;;;;5053892;28;20263;-59
2022/07/13 06:40:23;;;;;;;1.17;0.70;;;29.00;74.70;;;;;;5054543;28;20201;-59
2022/07/13 06:42:50;;;;;;;1.33;0.68;;;29.50;72.50;;;;;;5053947;28;20840;-59
2022/07/13 06:45:17;;;;;;;10.35;7.30;;;29.50;72.20;;;;;;5053752;28;20233;-58
2022/07/13 06:47:44;;;;;;;4.65;0.88;;;29.30;72.60;;;;;;5053502;28;20259;-59
2022/07/13 06:50:12;;;;;;;2.63;0.88;;;29.90;70.90;;;;;;5053672;28;20272;-59
2022/07/13 06:52:40;;;;;;;2.40;1.00;;;31.00;68.50;;;;;;5053979;28;20218;-60
2022/07/13 06:55:08;;;;;;;1.77;0.90;;;32.20;65.50;;;;;;5054201;28;20260;-59
2022/07/13 06:57:35;;;;;;;2.13;1.30;;;33.40;63.70;;;;;;5053945;28;20236;-61
2022/07/13 07:00:02;;;;;;;3.28;0.75;;;34.50;59.90;;;;;;5053839;28;20296;-59
2022/07/13 07:02:29;;;;;;;2.72;0.90;;;36.00;56.60;;;;;;5053274;28;20650;-59
2022/07/13 07:04:56;;;;;;;4.55;1.50;;;37.60;53.00;;;;;;5053464;28;20235;-58
2022/07/13 07:07:24;;;;;;;4.40;1.50;;;38.90;50.90;;;;;;5053011;28;20619;-59
2022/07/13 07:09:51;;;;;;;3.13;0.90;;;40.20;49.20;;;;;;5052738;28;20210;-60
2022/07/13 07:12:18;;;;;;;2.35;0.60;;;41.40;46.30;;;;;;5052938;28;20228;-59
2022/07/13 07:14:44;;;;;;;2.03;0.55;;;42.40;43.50;;;;;;5052825;28;20228;-59
2022/07/13 07:17:11;;;;;;;3.17;0.95;;;43.20;42.60;;;;;;5052545;28;20573;-59
2022/07/13 07:19:38;;;;;;;3.38;1.10;;;43.80;41.50;;;;;;5052344;28;20578;-60
2022/07/13 07:22:05;;;;;;;9.70;1.23;;;44.20;40.40;;;;;;5052503;28;20202;-59
2022/07/13 07:24:33;;;;;;;3.67;0.90;;;44.70;39.50;;;;;;5052837;28;20308;-60
2022/07/13 07:26:59;;;;;;;1.88;0.82;;;44.80;38.80;;;;;;5052536;28;20212;-59
2022/07/13 07:29:26;;;;;;;3.33;0.80;;;45.10;38.20;;;;;;5052449;28;20213;-60
2022/07/13 07:31:53;;;;;;;3.05;0.90;;;45.20;37.50;;;;;;5052320;28;20632;-60
2022/07/13 07:34:19;;;;;;;2.53;1.10;;;44.60;37.10;;;;;;5052472;28;20285;-59
2022/07/13 07:36:46;;;;;;;3.10;1.00;;;43.30;39.10;;;;;;5052602;28;20205;-59
2022/07/13 07:39:13;;;;;;;6.50;1.70;;;42.60;40.00;;;;;;5052217;28;20668;-61
2022/07/13 07:41:41;;;;;;;1.65;1.00;;;43.10;39.30;;;;;;5052355;28;20237;-59
2022/07/13 07:44:08;;;;;;;3.70;0.93;;;43.40;39.60;;;;;;5052807;28;20241;-59
2022/07/13 07:46:35;;;;;;;6.55;0.85;;;44.00;38.60;;;;;;5052821;28;20610;-59
2022/07/13 07:49:03;;;;;;;2.67;0.98;;;44.40;37.00;;;;;;5052847;28;20212;-59
2022/07/13 07:51:30;;;;;;;3.45;0.90;;;44.20;36.90;;;;;;5053244;28;20279;-59
2022/07/13 07:53:57;;;;;;;3.83;0.90;;;44.00;37.00;;;;;;5053283;28;20617;-58
2022/07/13 07:56:23;;;;;;;2.35;0.70;;;44.10;36.80;;;;;;5052934;28;20205;-58
2022/07/13 07:58:52;;;;;;;1.70;0.52;;;44.10;36.80;;;;;;5052453;28;20326;-59
2022/07/13 08:01:19;;;;;;;1.27;0.77;;;44.40;36.50;;;;;;5053300;28;20220;-58
2022/07/13 08:03:46;;;;;;;3.60;0.80;;;44.20;36.70;;;;;;5052863;28;20225;-58
2022/07/13 08:06:12;;;;;;;3.45;0.90;;;42.90;37.30;;;;;;5052634;28;20677;-59
2022/07/13 08:08:39;;;;;;;4.28;0.88;;;41.30;39.60;;;;;;5052660;28;20208;-59
2022/07/13 08:11:07;;;;;;;3.40;0.82;;;40.40;40.70;;;;;;5052382;28;20229;-58
2022/07/13 08:13:34;;;;;;;4.38;1.05;;;39.30;42.20;;;;;;5052671;28;20592;-58
2022/07/13 08:16:03;;;;;;;3.22;0.80;;;37.70;44.00;;;;;;5053052;28;20213;-58
2022/07/13 08:18:30;;;;;;;2.03;0.80;;;37.40;44.50;;;;;;5052500;28;20441;-58
2022/07/13 08:20:56;;;;;;;3.33;0.80;;;38.70;42.70;;;;;;5052922;28;20198;-58
2022/07/13 08:26:07;;;;;;;2.25;0.80;;;41.10;39.70;;;;;;5054980;28;20275;-59
2022/07/13 08:28:34;;;;;;;3.88;1.15;;;41.80;38.90;;;;;;5056251;28;20216;-58
2022/07/13 08:31:02;;;;;;;3.47;1.00;;;40.50;40.70;;;;;;5056559;28;20229;-59
2022/07/13 08:39:02;;;;;;;2.22;0.82;;;41.40;39.20;;;;;;5055361;28;20771;-58
2022/07/13 08:41:30;;;;;;;2.78;0.68;;;41.00;38.90;;;;;;5055666;28;20208;-59
2022/07/13 08:43:56;;;;;;;1.27;0.90;;;40.30;39.30;;;;;;5055391;28;20233;-59
2022/07/13 08:46:25;;;;;;;1.48;0.85;;;39.70;39.60;;;;;;5055795;28;20726;-61
2022/07/13 08:48:55;;;;;;;1.70;1.10;;;39.30;41.00;;;;;;5056041;28;20205;-60
2022/07/13 08:51:22;;;;;;;3.95;0.90;;;38.90;42.20;;;;;;5055729;28;20252;-59
2022/07/13 08:53:51;;;;;;;2.03;0.77;;;38.50;43.10;;;;;;5055610;28;20264;-59
2022/07/13 08:56:18;;;;;;;5.57;1.33;;;38.30;43.00;;;;;;5055202;28;20201;-60
2022/07/13 08:58:44;;;;;;;3.00;0.75;;;37.70;44.00;;;;;;5054992;28;20205;-59
2022/07/13 09:01:12;;;;;;;4.53;0.88;;;37.40;43.90;;;;;;5055030;28;20213;-59
2022/07/13 09:03:40;;;;;;;0.85;0.50;;;37.10;43.60;;;;;;5055125;28;20244;-60
2022/07/13 09:06:06;;;;;;;0.68;0.60;;;36.90;44.20;;;;;;5055104;28;20213;-59
2022/07/13 09:08:42;;;;;;;1.35;0.90;;;36.60;44.40;;;;;;5054768;28;20217;-58
2022/07/13 09:11:09;;;;;;;1.38;0.70;;;36.50;44.60;;;;;;5054843;28;20226;-58
2022/07/13 09:13:38;;;;;;;1.48;0.80;;;36.50;43.10;;;;;;5055061;28;20267;-59
2022/07/13 09:16:19;;;;;;;1.95;1.33;;;36.30;42.10;;;;;;5054901;28;20208;-59
2022/07/13 09:18:48;;;;;;;3.13;0.60;;;35.90;42.80;;;;;;5054805;28;20213;-59
2022/07/13 09:21:16;;;;;;;0.75;0.73;;;35.40;42.90;;;;;;5054760;28;20210;-59
2022/07/13 09:23:43;;;;;;;1.35;0.50;;;34.90;43.70;;;;;;5054889;28;20237;-58
2022/07/13 09:26:10;;;;;;;3.53;0.55;;;34.50;44.70;;;;;;5055263;28;20676;-59
2022/07/13 09:28:44;;;;;;;1.17;0.60;;;34.10;44.90;;;;;;5054655;28;20205;-58
2022/07/13 09:31:11;;;;;;;2.20;0.52;;;33.60;45.30;;;;;;5054735;28;20225;-62
2022/07/13 09:33:39;;;;;;;1.77;0.60;;;33.20;45.70;;;;;;5054575;28;20236;-58
2022/07/13 09:36:12;;;;;;;3.38;0.80;;;32.90;46.30;;;;;;5054427;28;20202;-57
2022/07/13 09:38:41;;;;;;;1.70;0.60;;;32.60;46.40;;;;;;5054087;28;20665;-57
2022/07/13 09:41:23;;;;;;;3.03;0.50;;;32.30;47.50;;;;;;5054132;28;20332;-58
2022/07/13 09:46:53;;;;;;;0.88;0.70;;;31.40;49.40;;;;;;5054318;28;20204;-58
2022/07/13 09:49:29;;;;;;;2.28;0.70;;;30.80;50.50;;;;;;5054031;28;20205;-58
2022/07/13 09:51:58;;;;;;;3.40;0.60;;;30.50;49.50;;;;;;5054366;28;20316;-58
2022/07/13 09:54:26;;;;;;;0.77;0.60;;;30.30;47.90;;;;;;5054140;28;20701;-59
2022/07/13 09:56:58;;;;;;;2.38;0.50;;;30.30;48.70;;;;;;5053928;28;20258;-58
2022/07/13 09:59:25;;;;;;;1.23;0.70;;;30.20;50.00;;;;;;5053912;28;20400;-58
2022/07/13 10:01:52;;;;;;;0.80;0.75;;;30.10;50.60;;;;;;5053911;28;20214;-59
2022/07/13 10:04:19;;;;;;;0.60;0.60;;;30.00;51.70;;;;;;5054377;28;20233;-58
2022/07/13 10:06:46;;;;;;;2.03;0.95;;;29.80;52.00;;;;;;5054523;28;20212;-58
2022/07/13 10:09:17;;;;;;;5.13;0.60;;;29.80;51.90;;;;;;5054588;28;20209;-58
2022/07/13 10:11:44;;;;;;;0.82;0.80;;;29.80;51.50;;;;;;5054708;28;20701;-58
2022/07/13 10:14:10;;;;;;;2.40;0.73;;;30.00;51.50;;;;;;5053973;28;20225;-58
2022/07/13 10:16:37;;;;;;;1.75;0.60;;;30.10;51.70;;;;;;5054167;28;20208;-58
2022/07/13 10:19:07;;;;;;;3.47;0.70;;;30.20;51.00;;;;;;5054213;28;20209;-58
2022/07/13 10:21:46;;;;;;;1.10;0.70;;;30.30;50.70;;;;;;5054029;28;20739;-58
2022/07/13 10:24:17;;;;;;;0.68;0.60;;;30.40;50.10;;;;;;5053698;28;20233;-58
2022/07/13 10:26:43;;;;;;;1.40;0.60;;;30.30;50.00;;;;;;5053689;28;20255;-58
2022/07/13 10:29:12;;;;;;;0.45;0.45;;;30.30;50.10;;;;;;5053625;28;20263;-58
2022/07/13 10:31:40;;;;;;;3.40;0.70;;;30.30;50.00;;;;;;5053401;28;20225;-58
2022/07/13 10:34:08;;;;;;;3.42;0.90;;;30.40;49.10;;;;;;5053690;28;20237;-58
2022/07/13 10:36:52;;;;;;;1.70;1.27;;;30.50;49.50;;;;;;5053817;28;20241;-57
2022/07/13 10:39:21;;;;;;;0.55;0.43;;;30.70;49.40;;;;;;5053089;28;20206;-58
2022/07/13 10:41:57;;;;;;;1.30;0.50;;;30.80;48.50;;;;;;5053596;28;20245;-59
2022/07/13 10:44:35;;;;;;;1.67;0.90;;;30.80;47.20;;;;;;5053234;28;20295;-59
2022/07/13 10:47:03;;;;;;;0.80;0.75;;;30.90;47.50;;;;;;5053026;28;20677;-60
2022/07/13 10:49:44;;;;;;;1.95;0.70;;;30.90;47.50;;;;;;5052294;28;20290;-59
2022/07/13 10:52:51;;;;;;;0.73;0.73;;;31.00;47.90;;;;;;5052976;28;20240;-61
2022/07/13 10:55:29;;;;;;;0.90;0.80;;;31.10;45.70;;;;;;5053191;28;20313;-58
2022/07/13 10:57:57;;;;;;;3.58;1.50;;;31.20;44.30;;;;;;5053167;28;20244;-59
2022/07/13 11:00:42;;;;;;;2.25;1.73;;;31.30;44.30;;;;;;5052830;28;20217;-59
2022/07/13 11:03:24;;;;;;;3.25;1.40;;;31.50;45.20;;;;;;5053357;28;20206;-59
2022/07/13 11:06:07;;;;;;;2.42;1.90;;;31.80;44.20;;;;;;5052943;28;20308;-59
2022/07/13 11:08:34;;;;;;;3.38;0.70;;;32.20;43.10;;;;;;5049747;28;20221;-60
2022/07/13 11:11:13;;;;;;;1.05;0.52;;;32.70;42.30;;;;;;5052841;28;20469;-59
2022/07/13 11:13:41;;;;;;;0.50;0.50;;;33.30;41.10;;;;;;5052763;28;20225;-60
2022/07/13 11:16:08;;;;;;;3.50;0.80;;;33.90;40.20;;;;;;5052823;28;20202;-59
2022/07/13 11:18:36;;;;;;;4.20;3.45;;;34.40;40.40;;;;;;5052616;28;20240;-58
2022/07/13 11:21:05;;;;;;;3.47;0.68;;;34.90;39.40;;;;;;5052839;28;20703;-59
2022/07/13 11:26:55;;;;;;;2.78;1.30;;;35.70;37.80;;;;;;5052651;28;20250;-63
2022/07/13 11:29:25;;;;;;;2.83;0.80;;;35.90;37.50;;;;;;5052069;28;20209;-60
2022/07/13 11:31:55;;;;;;;2.85;0.60;;;35.90;37.20;;;;;;5052622;28;20225;-59
2022/07/13 11:34:22;;;;;;;0.93;0.52;;;35.60;38.00;;;;;;5052406;28;20237;-59
2022/07/13 11:36:49;;;;;;;0.80;0.50;;;35.20;38.60;;;;;;5052287;28;20201;-59
2022/07/13 11:39:23;;;;;;;1.15;0.60;;;34.70;39.00;;;;;;5052436;28;20202;-59
2022/07/13 11:41:53;;;;;;;2.75;0.90;;;34.40;39.30;;;;;;5052250;28;20587;-60
2022/07/13 11:44:22;;;;;;;4.53;0.60;;;34.40;39.30;;;;;;5052221;28;20237;-59
2022/07/13 11:46:49;;;;;;;2.00;0.70;;;34.20;39.50;;;;;;5052145;28;20248;-59
2022/07/13 11:49:15;;;;;;;2.17;0.52;;;34.20;40.30;;;;;;5052000;28;20209;-59
2022/07/13 11:51:43;;;;;;;6.75;0.80;;;34.20;40.60;;;;;;5052279;28;20208;-59
2022/07/13 11:54:11;;;;;;;1.17;0.90;;;34.20;40.60;;;;;;5052005;28;20237;-59
2022/07/13 11:56:47;;;;;;;4.03;0.70;;;34.30;40.50;;;;;;5052396;28;20214;-60
2022/07/13 11:59:15;;;;;;;1.00;0.60;;;34.40;39.90;;;;;;5051873;28;20292;-59
2022/07/13 12:01:50;;;;;;;0.75;0.60;;;34.50;40.10;;;;;;5051624;28;20695;-60
2022/07/13 12:04:22;;;;;;;1.67;0.40;;;34.70;38.90;;;;;;5051977;28;20222;-59
2022/07/13 12:06:48;;;;;;;1.48;0.50;;;34.90;38.10;;;;;;5051822;28;20738;-59
2022/07/13 12:09:18;;;;;;;0.77;0.45;;;35.00;38.40;;;;;;5051718;28;20259;-59
2022/07/13 12:11:45;;;;;;;2.17;0.40;;;35.10;38.80;;;;;;5052036;28;20256;-59
2022/07/13 12:14:13;;;;;;;1.45;0.40;;;35.20;38.60;;;;;;5051801;28;20225;-59
2022/07/13 12:16:41;;;;;;;0.57;0.57;;;35.20;37.40;;;;;;5051881;28;20209;-59
2022/07/13 12:19:08;;;;;;;2.17;0.60;;;35.20;37.40;;;;;;5051880;28;20209;-59
2022/07/13 12:21:36;;;;;;;2.00;0.50;;;35.00;37.60;;;;;;5052366;28;20205;-59
2022/07/13 12:24:03;;;;;;;0.65;0.50;;;34.90;37.90;;;;;;5052396;28;20232;-61
2022/07/13 12:26:30;;;;;;;0.40;0.40;;;35.00;37.80;;;;;;5052529;28;20211;-59
2022/07/13 12:28:57;;;;;;;1.85;0.40;;;35.30;37.20;;;;;;5052558;28;20208;-58
2022/07/13 12:31:26;;;;;;;0.68;0.50;;;35.50;37.20;;;;;;5052287;28;20202;-59
2022/07/13 12:33:54;;;;;;;1.05;0.60;;;35.70;37.30;;;;;;5051383;28;20233;-59
2022/07/13 12:36:22;;;;;;;0.40;0.40;;;36.20;37.60;;;;;;5051643;28;20603;-60
2022/07/13 12:39:02;;;;;;;0.50;0.50;;;36.70;36.70;;;;;;5051624;28;20339;-60
2022/07/13 12:41:34;;;;;;;0.65;0.60;;;37.10;36.10;;;;;;5052228;28;20236;-60
2022/07/13 12:44:04;;;;;;;0.30;0.30;;;37.50;35.90;;;;;;5051616;28;20269;-60
2022/07/13 12:46:50;;;;;;;0.45;0.40;;;37.70;34.70;;;;;;5051618;28;20240;-60
2022/07/13 12:49:18;;;;;;;2.78;0.63;;;37.70;34.60;;;;;;5051438;28;20205;-60
2022/07/13 12:51:50;;;;;;;2.25;0.90;;;37.70;34.30;;;;;;5051617;28;20206;-59
2022/07/13 12:54:17;;;;;;;5.20;1.35;;;37.50;34.00;;;;;;5051416;28;20226;-60
2022/07/13 12:56:50;;;;;;;1.08;0.60;;;37.20;34.70;;;;;;5051639;28;20213;-60
2022/07/13 12:59:18;;;;;;;3.20;1.05;;;36.90;33.00;;;;;;5051541;28;20304;-60
2022/07/13 13:01:45;;;;;;;2.17;1.35;;;36.60;34.00;;;;;;5051867;28;20252;-60
2022/07/13 13:04:12;;;;;;;1.40;1.10;;;36.40;32.40;;;;;;5051767;28;20291;-60
2022/07/13 13:06:42;;;;;;;3.03;0.68;;;36.40;33.10;;;;;;5051263;28;20244;-58